createdAt,value
2022-08-16T00:01:16.651Z,18.52
2022-08-16T00:03:44.169Z,18.30
2022-08-16T00:06:12.435Z,17.90
2022-08-16T00:08:45.897Z,19.05
2022-08-16T00:11:16.575Z,18.17
2022-08-16T00:13:53.309Z,18.08
2022-08-16T00:17:05.645Z,17.52
2022-08-16T00:19:10.182Z,17.23
2022-08-16T00:21:41.423Z,18.02
2022-08-16T00:24:11.553Z,17.55
2022-08-16T00:26:44.136Z,17.25
2022-08-16T00:29:15.448Z,17.38
2022-08-16T00:31:58.957Z,18.35
2022-08-16T00:34:52.430Z,17.42
2022-08-16T00:37:17.361Z,17.23
2022-08-16T00:39:46.975Z,16.80
2022-08-16T00:42:30.673Z,17.35
2022-08-16T00:45:01.442Z,17.38
2022-08-16T00:47:35.884Z,17.67
2022-08-16T00:50:05.334Z,16.55
2022-08-16T00:52:39.142Z,17.10
2022-08-16T00:55:18.254Z,15.82
2022-08-16T00:57:58.539Z,17.15
2022-08-16T01:00:28.987Z,17.02
2022-08-16T01:02:57.315Z,17.30
2022-08-16T01:05:25.530Z,17.45
2022-08-16T01:07:53.728Z,17.08
2022-08-16T01:10:21.687Z,17.50
2022-08-16T01:13:04.639Z,16.92
2022-08-16T01:15:33.765Z,16.85
2022-08-16T01:18:02.157Z,18.08
2022-08-16T01:20:32.873Z,18.05
2022-08-16T01:23:08.780Z,17.10
2022-08-16T01:25:39.558Z,16.80
2022-08-16T01:28:08.817Z,17.10
2022-08-16T01:30:40.035Z,15.68
2022-08-16T01:33:19.357Z,16.92
2022-08-16T01:35:52.617Z,17.45
2022-08-16T01:38:25.624Z,17.33
2022-08-16T01:40:58.321Z,17.38
2022-08-16T01:43:29.602Z,16.80
2022-08-16T01:45:59.326Z,16.70
2022-08-16T01:48:27.761Z,17.65
2022-08-16T01:51:09.690Z,17.90
2022-08-16T01:53:43.337Z,18.10
2022-08-16T01:56:24.419Z,17.63
2022-08-16T01:58:52.450Z,18.13
2022-08-16T02:01:19.970Z,18.63
2022-08-16T02:03:50.599Z,17.33
2022-08-16T02:06:33.659Z,17.70
2022-08-16T02:09:02.351Z,17.27
2022-08-16T02:14:18.489Z,17.90
2022-08-16T02:16:48.943Z,17.88
2022-08-16T02:19:17.555Z,17.73
2022-08-16T02:22:08.181Z,18.75
2022-08-16T02:24:42.316Z,17.83
2022-08-16T02:27:13.656Z,18.60
2022-08-16T02:29:44.528Z,18.67
2022-08-16T02:35:00.090Z,18.77
2022-08-16T02:37:39.793Z,20.13
2022-08-16T02:40:16.912Z,19.77
2022-08-16T02:42:44.371Z,20.90
2022-08-16T02:45:13.668Z,20.40
2022-08-16T02:48:01.064Z,20.30
2022-08-16T02:50:55.402Z,19.95
2022-08-16T02:53:18.033Z,19.42
2022-08-16T02:55:46.052Z,19.75
2022-08-16T02:58:18.093Z,21.08
2022-08-16T03:00:50.281Z,19.38
2022-08-16T03:03:18.205Z,17.55
2022-08-16T03:05:50.047Z,18.08
2022-08-16T03:08:50.874Z,18.45
2022-08-16T03:11:16.776Z,16.33
2022-08-16T03:13:51.190Z,16.98
2022-08-16T03:16:37.566Z,16.02
2022-08-16T03:19:06.317Z,15.98
2022-08-16T03:21:37.323Z,16.55
2022-08-16T03:24:06.022Z,17.48
2022-08-16T03:26:53.441Z,17.05
2022-08-16T03:29:27.200Z,17.70
2022-08-16T03:31:59.665Z,17.20
2022-08-16T03:34:29.066Z,18.55
2022-08-16T03:36:57.878Z,18.00
2022-08-16T03:39:25.363Z,17.70
2022-08-16T03:41:59.918Z,18.80
2022-08-16T03:44:44.064Z,18.60
2022-08-16T03:47:18.853Z,19.13
2022-08-16T03:49:51.815Z,19.80
2022-08-16T03:52:20.220Z,18.75
2022-08-16T03:54:53.393Z,19.88
2022-08-16T03:57:24.857Z,20.25
2022-08-16T04:00:00.037Z,19.38
2022-08-16T04:02:31.698Z,19.27
2022-08-16T04:04:59.525Z,20.08
2022-08-16T04:07:27.124Z,20.52
2022-08-16T04:10:36.295Z,19.15
2022-08-16T04:12:54.510Z,19.88
2022-08-16T04:15:22.992Z,19.50
2022-08-16T04:17:55.834Z,20.17
2022-08-16T04:20:31.573Z,19.83
2022-08-16T04:23:01.865Z,20.45
2022-08-16T04:25:29.735Z,21.02
2022-08-16T04:28:54.632Z,21.23
2022-08-16T04:30:46.491Z,22.67
2022-08-16T04:33:16.635Z,22.15
2022-08-16T04:35:44.074Z,21.85
2022-08-16T04:38:21.388Z,22.63
2022-08-16T04:40:50.206Z,23.05
2022-08-16T04:43:18.625Z,23.08
2022-08-16T04:45:46.359Z,23.05
2022-08-16T04:48:28.530Z,22.60
2022-08-16T04:51:01.659Z,23.75
2022-08-16T04:53:39.564Z,22.27
2022-08-16T04:56:11.073Z,21.65
2022-08-16T04:58:45.622Z,23.25
2022-08-16T05:01:15.185Z,24.77
2022-08-16T05:04:00.351Z,24.15
2022-08-16T05:06:45.347Z,22.88
2022-08-16T05:09:13.594Z,23.70
2022-08-16T05:11:41.042Z,23.63
2022-08-16T05:14:09.038Z,23.83
2022-08-16T05:16:36.563Z,24.75
2022-08-16T05:19:04.858Z,25.13
2022-08-16T05:21:38.510Z,24.50
2022-08-16T05:24:07.133Z,24.27
2022-08-16T05:26:36.767Z,23.63
2022-08-16T05:29:04.793Z,23.98
2022-08-16T05:31:32.487Z,23.95
2022-08-16T05:34:03.733Z,24.63
2022-08-16T05:36:36.542Z,24.05
2022-08-16T05:39:05.490Z,21.48
2022-08-16T05:41:33.247Z,20.98
2022-08-16T05:44:23.201Z,21.58
2022-08-16T05:46:52.775Z,21.02
2022-08-16T05:49:22.213Z,20.75
2022-08-16T05:51:51.871Z,21.38
2022-08-16T05:54:24.905Z,20.73
2022-08-16T05:56:53.261Z,18.88
2022-08-16T05:59:22.108Z,18.73
2022-08-16T06:01:50.457Z,18.80
2022-08-16T06:04:35.167Z,20.15
2022-08-16T06:07:08.936Z,20.42
2022-08-16T06:09:43.817Z,20.85
2022-08-16T06:12:12.213Z,20.20
2022-08-16T06:14:40.231Z,19.85
2022-08-16T06:17:07.778Z,20.17
2022-08-16T06:19:35.791Z,18.58
2022-08-16T06:22:04.710Z,19.08
2022-08-16T06:24:54.280Z,18.85
2022-08-16T06:27:19.574Z,19.65
2022-08-16T06:29:50.050Z,19.65
2022-08-16T06:32:27.322Z,18.77
2022-08-16T06:35:02.310Z,18.23
2022-08-16T06:37:37.348Z,17.50
2022-08-16T06:40:12.993Z,17.40
2022-08-16T06:42:47.849Z,15.90
2022-08-16T06:45:24.114Z,15.40
2022-08-16T06:47:56.752Z,15.57
2022-08-16T06:50:29.551Z,15.25
2022-08-16T06:53:19.762Z,16.00
2022-08-16T06:55:46.604Z,13.70
2022-08-16T06:58:22.874Z,13.55
2022-08-16T07:00:59.828Z,14.00
2022-08-16T07:03:32.603Z,14.18
2022-08-16T07:06:15.375Z,13.27
2022-08-16T07:08:44.186Z,12.93
2022-08-16T07:11:11.645Z,13.98
2022-08-16T07:14:00.416Z,15.27
2022-08-16T07:16:27.814Z,13.15
2022-08-16T07:19:01.706Z,14.25
2022-08-16T07:21:45.540Z,13.60
2022-08-16T07:24:29.894Z,13.05
2022-08-16T07:26:58.836Z,13.07
2022-08-16T07:29:26.531Z,12.40
2022-08-16T07:31:59.497Z,13.48
2022-08-16T07:34:34.833Z,13.32
2022-08-16T07:37:06.347Z,13.55
2022-08-16T07:39:35.309Z,13.50
2022-08-16T07:42:25.850Z,12.95
2022-08-16T07:44:55.913Z,13.05
2022-08-16T07:47:31.303Z,12.43
2022-08-16T07:49:59.503Z,12.63
2022-08-16T07:52:29.678Z,13.18
2022-08-16T07:54:59.255Z,12.27
2022-08-16T07:57:26.696Z,12.73
2022-08-16T07:59:57.353Z,13.13
2022-08-16T08:02:27.528Z,13.15
2022-08-16T08:04:55.833Z,12.32
2022-08-16T08:07:27.592Z,13.13
2022-08-16T08:09:55.686Z,11.80
2022-08-16T08:12:32.447Z,11.57
2022-08-16T08:15:04.300Z,12.32
2022-08-16T08:17:42.580Z,10.90
2022-08-16T08:20:12.412Z,11.88
2022-08-16T08:22:39.910Z,11.05
2022-08-16T08:25:08.091Z,12.00
2022-08-16T08:27:44.194Z,12.63
2022-08-16T08:30:51.319Z,11.15
2022-08-16T08:33:01.043Z,11.48
2022-08-16T08:35:28.821Z,11.07
2022-08-16T08:37:56.690Z,10.98
2022-08-16T08:40:26.765Z,11.15
2022-08-16T08:43:00.885Z,10.57
2022-08-16T08:45:46.989Z,9.85
2022-08-16T08:48:33.836Z,10.85
2022-08-16T08:51:03.409Z,9.75
2022-08-16T08:53:30.963Z,9.25
2022-08-16T08:55:59.475Z,10.85
2022-08-16T08:58:34.334Z,9.52
2022-08-16T09:01:02.983Z,10.50
2022-08-16T09:03:32.370Z,9.80
2022-08-16T09:06:00.458Z,9.85
2022-08-16T09:08:28.407Z,9.55
2022-08-16T09:10:58.910Z,8.90
2022-08-16T09:13:32.820Z,8.05
2022-08-16T09:16:00.489Z,8.90
2022-08-16T09:18:35.830Z,9.25
2022-08-16T09:21:07.071Z,8.38
2022-08-16T09:23:37.508Z,8.40
2022-08-16T09:26:43.911Z,9.30
2022-08-16T09:29:16.871Z,9.60
2022-08-16T09:31:42.025Z,9.00
2022-08-16T09:34:10.539Z,9.57
2022-08-16T09:36:45.177Z,7.85
2022-08-16T09:39:15.734Z,7.65
2022-08-16T09:41:53.275Z,7.18
2022-08-16T09:45:12.044Z,8.75
2022-08-16T09:47:12.060Z,7.60
2022-08-16T09:49:40.770Z,7.03
2022-08-16T09:52:09.542Z,8.02
2022-08-16T09:54:37.942Z,6.65
2022-08-16T09:57:05.592Z,6.80
2022-08-16T09:59:38.607Z,6.97
2022-08-16T10:02:26.276Z,7.97
2022-08-16T10:04:55.089Z,6.57
2022-08-16T10:07:22.752Z,6.20
2022-08-16T10:09:55.095Z,6.78
2022-08-16T10:12:42.450Z,8.25
2022-08-16T10:15:15.802Z,7.15
2022-08-16T10:17:44.934Z,6.90
2022-08-16T10:20:28.614Z,6.65
2022-08-16T10:23:02.069Z,6.50
2022-08-16T10:27:17.978Z,6.60
2022-08-16T10:28:28.808Z,5.53
2022-08-16T10:30:59.086Z,5.60
2022-08-16T10:35:56.720Z,6.68
2022-08-16T10:38:28.299Z,5.70
2022-08-16T10:40:55.996Z,4.63
2022-08-16T10:43:23.395Z,5.00
2022-08-16T10:45:59.895Z,5.00
2022-08-16T10:48:29.579Z,4.45
2022-08-16T10:50:59.362Z,4.93
2022-08-16T10:53:32.472Z,4.85
2022-08-16T10:56:01.803Z,4.70
2022-08-16T10:58:34.000Z,5.25
2022-08-16T11:01:39.631Z,4.90
2022-08-16T11:03:54.541Z,5.07
2022-08-16T11:06:26.978Z,5.38
2022-08-16T11:14:33.362Z,4.88
2022-08-16T11:17:03.033Z,4.90
2022-08-16T11:22:42.262Z,4.93
2022-08-16T11:25:59.655Z,4.95
2022-08-16T11:28:03.276Z,5.00
2022-08-16T11:30:38.669Z,4.43
2022-08-16T11:33:06.714Z,4.20
2022-08-16T11:38:51.500Z,4.40
2022-08-16T11:41:11.623Z,4.45
2022-08-16T11:43:40.468Z,3.42
2022-08-16T11:46:45.344Z,4.10
2022-08-16T11:48:57.073Z,4.18
2022-08-16T11:51:25.847Z,4.22
2022-08-16T11:53:53.273Z,4.43
2022-08-16T11:56:28.575Z,4.32
2022-08-16T11:59:08.752Z,4.72
2022-08-16T12:01:54.752Z,3.67
2022-08-16T12:04:23.807Z,3.60
2022-08-16T12:06:54.859Z,3.78
2022-08-16T12:09:24.005Z,4.30
2022-08-16T12:11:53.309Z,4.40
2022-08-16T12:14:22.845Z,4.38
2022-08-16T12:16:55.541Z,3.65
2022-08-16T12:19:33.825Z,3.65
2022-08-16T12:22:19.359Z,4.00
2022-08-16T12:24:51.863Z,3.58
2022-08-16T12:27:20.652Z,4.05
2022-08-16T12:29:52.369Z,4.10
2022-08-16T12:32:37.682Z,4.35
2022-08-16T12:35:07.374Z,4.13
2022-08-16T12:37:36.508Z,3.95
2022-08-16T12:40:07.099Z,4.22
2022-08-16T12:42:53.612Z,4.63
2022-08-16T12:45:21.802Z,4.00
2022-08-16T12:48:32.727Z,3.88
2022-08-16T12:50:54.854Z,3.40
2022-08-16T12:53:25.942Z,3.53
2022-08-16T12:55:59.539Z,3.63
2022-08-16T12:58:48.455Z,3.20
2022-08-16T13:01:14.939Z,3.60
2022-08-16T13:03:44.100Z,4.07
2022-08-16T13:06:12.523Z,3.80
2022-08-16T13:08:42.029Z,3.42
2022-08-16T13:11:14.423Z,3.83
2022-08-16T13:13:45.207Z,3.72
2022-08-16T13:16:20.117Z,4.38
2022-08-16T13:18:52.592Z,3.90
2022-08-16T13:21:23.843Z,4.13
2022-08-16T13:23:55.279Z,3.55
2022-08-16T13:26:23.126Z,3.55
2022-08-16T13:28:50.882Z,3.35
2022-08-16T13:31:18.360Z,3.47
2022-08-16T13:33:46.334Z,3.33
2022-08-16T13:36:38.891Z,3.30
2022-08-16T13:39:03.655Z,2.95
2022-08-16T13:41:32.244Z,3.03
2022-08-16T13:44:00.398Z,2.90
2022-08-16T13:46:27.966Z,2.90
2022-08-16T13:48:56.231Z,2.67
2022-08-16T13:53:59.792Z,2.58
2022-08-16T13:56:37.297Z,2.08
2022-08-16T13:59:13.921Z,2.38
2022-08-16T14:01:47.019Z,2.70
2022-08-16T14:04:26.474Z,2.60
2022-08-16T14:06:54.614Z,2.30
2022-08-16T14:09:22.206Z,2.42
2022-08-16T14:11:53.737Z,2.60
2022-08-16T14:14:28.362Z,2.70
2022-08-16T14:19:24.091Z,2.95
2022-08-16T14:22:13.589Z,2.75
2022-08-16T14:24:47.113Z,2.60
2022-08-16T14:27:17.725Z,3.10
2022-08-16T14:29:45.574Z,2.97
2022-08-16T14:32:27.230Z,3.08
2022-08-16T14:35:02.500Z,3.00
2022-08-16T14:37:31.029Z,2.88
2022-08-16T14:39:59.549Z,3.00
2022-08-16T14:42:28.943Z,2.65
2022-08-16T14:44:56.913Z,2.78
2022-08-16T14:47:25.137Z,2.58
2022-08-16T14:50:01.441Z,2.67
2022-08-16T14:52:54.146Z,2.63
2022-08-16T14:55:17.062Z,2.40
2022-08-16T14:57:46.104Z,2.30
2022-08-16T15:00:18.028Z,2.50
2022-08-16T15:02:45.947Z,2.20
2022-08-16T15:05:15.163Z,2.70
2022-08-16T15:07:42.598Z,2.22
2022-08-16T15:10:19.263Z,2.30
2022-08-16T15:12:54.157Z,2.25
2022-08-16T15:15:23.922Z,2.25
2022-08-16T15:17:56.724Z,2.33
2022-08-16T15:20:26.238Z,2.30
2022-08-16T15:22:54.170Z,2.50
2022-08-16T15:25:23.396Z,2.00
2022-08-16T15:27:58.465Z,2.25
2022-08-16T15:30:48.251Z,2.10
2022-08-16T15:33:16.681Z,2.28
2022-08-16T15:35:44.438Z,2.00
2022-08-16T15:38:56.943Z,2.10
2022-08-16T15:40:59.588Z,2.33
2022-08-16T15:43:39.549Z,2.20
2022-08-16T15:46:35.480Z,2.15
2022-08-16T15:49:13.329Z,2.30
2022-08-16T15:51:41.190Z,2.30
2022-08-16T15:54:29.388Z,2.30
2022-08-16T15:57:00.322Z,2.40
2022-08-16T15:59:48.073Z,2.28
2022-08-16T16:02:24.471Z,2.28
2022-08-16T16:04:56.706Z,2.47
2022-08-16T16:07:24.839Z,2.22
2022-08-16T16:09:53.355Z,2.45
2022-08-16T16:12:51.429Z,2.40
2022-08-16T16:15:09.967Z,2.33
2022-08-16T16:20:04.858Z,2.35
2022-08-16T16:22:33.340Z,2.20
2022-08-16T16:25:00.774Z,2.15
2022-08-16T16:27:28.392Z,2.25
2022-08-16T16:30:01.522Z,2.30
2022-08-16T16:32:34.639Z,2.50
2022-08-16T16:35:02.447Z,2.22
2022-08-16T16:37:31.038Z,2.35
2022-08-16T16:39:58.716Z,2.35
2022-08-16T16:42:29.907Z,2.28
2022-08-16T16:45:01.191Z,2.67
2022-08-16T16:47:29.197Z,2.70
2022-08-16T16:49:58.089Z,2.67
2022-08-16T16:52:43.468Z,2.42
2022-08-16T16:55:12.685Z,2.58
2022-08-16T16:57:57.592Z,2.70
2022-08-16T17:00:30.278Z,2.67
2022-08-16T17:03:05.994Z,2.78
2022-08-16T17:06:00.195Z,2.60
2022-08-16T17:08:30.666Z,2.70
2022-08-16T17:10:58.405Z,2.42
2022-08-16T17:13:27.539Z,2.58
2022-08-16T17:15:55.258Z,2.70
2022-08-16T17:19:18.955Z,2.83
2022-08-16T17:21:12.421Z,2.53
2022-08-16T17:23:58.388Z,2.90
2022-08-16T17:26:30.028Z,2.67
2022-08-16T17:29:02.735Z,2.67
2022-08-16T17:31:40.916Z,3.03
2022-08-16T17:34:29.349Z,3.10
2022-08-16T17:37:00.650Z,2.60
2022-08-16T17:39:33.034Z,2.53
2022-08-16T17:42:01.069Z,3.30
2022-08-16T17:44:28.716Z,2.97
2022-08-16T17:46:56.135Z,2.90
2022-08-16T17:49:23.682Z,2.70
2022-08-16T17:51:51.645Z,2.92
2022-08-16T17:54:30.853Z,2.83
2022-08-16T17:56:58.528Z,2.88
2022-08-16T17:59:28.489Z,2.78
2022-08-16T18:01:56.078Z,2.85
2022-08-16T18:04:48.859Z,3.03
2022-08-16T18:07:11.274Z,3.15
2022-08-16T18:09:41.095Z,3.20
2022-08-16T18:12:23.974Z,3.08
2022-08-16T18:15:02.918Z,2.90
2022-08-16T18:17:30.363Z,3.10
2022-08-16T18:19:57.847Z,3.25
2022-08-16T18:22:30.242Z,3.53
2022-08-16T18:24:59.516Z,3.53
2022-08-16T18:27:28.330Z,3.22
2022-08-16T18:29:56.117Z,3.40
2022-08-16T18:32:24.947Z,3.60
2022-08-16T18:34:52.727Z,3.65
2022-08-16T18:37:22.330Z,3.33
2022-08-16T18:39:49.781Z,3.53
2022-08-16T18:42:19.293Z,3.58
2022-08-16T18:44:46.787Z,3.70
2022-08-16T18:47:14.203Z,3.70
2022-08-16T18:49:41.651Z,3.83
2022-08-16T18:52:09.056Z,3.78
2022-08-16T18:55:02.674Z,4.63
2022-08-16T18:57:25.219Z,4.05
2022-08-16T18:59:52.671Z,3.85
2022-08-16T19:02:57.396Z,4.38
2022-08-16T19:05:13.371Z,4.72
2022-08-16T19:07:40.937Z,5.25
2022-08-16T19:10:09.066Z,4.47
2022-08-16T19:12:42.420Z,4.53
2022-08-16T19:15:14.124Z,4.85
2022-08-16T19:17:41.940Z,5.00
2022-08-16T19:20:10.959Z,4.45
2022-08-16T19:23:02.326Z,4.30
2022-08-16T19:25:46.308Z,4.97
2022-08-16T19:28:21.782Z,4.80
2022-08-16T19:33:32.608Z,5.10
2022-08-16T19:36:00.116Z,5.10
2022-08-16T19:38:27.628Z,5.28
2022-08-16T19:40:55.201Z,5.47
2022-08-16T19:43:24.033Z,5.28
2022-08-16T19:45:52.613Z,5.38
2022-08-16T19:48:20.147Z,5.80
2022-08-16T19:50:47.583Z,5.95
2022-08-16T19:53:18.820Z,6.22
2022-08-16T19:55:47.297Z,6.10
2022-08-16T19:58:16.799Z,5.72
2022-08-16T20:00:47.048Z,6.45
2022-08-16T20:03:18.430Z,6.47
2022-08-16T20:05:46.022Z,6.25
2022-08-16T20:08:13.686Z,7.50
2022-08-16T20:10:42.001Z,6.57
2022-08-16T20:13:12.102Z,6.03
2022-08-16T20:18:21.487Z,7.10
2022-08-16T20:20:53.171Z,6.55
2022-08-16T20:23:24.765Z,7.25
2022-08-16T20:25:53.474Z,6.72
2022-08-16T20:28:50.008Z,5.90
2022-08-16T20:31:08.305Z,6.72
2022-08-16T20:33:37.084Z,6.72
2022-08-16T20:36:04.889Z,6.43
2022-08-16T20:38:32.335Z,6.97
2022-08-16T20:40:59.728Z,6.75
2022-08-16T20:43:27.186Z,6.88
2022-08-16T20:45:54.624Z,6.72
2022-08-16T20:48:22.030Z,7.93
2022-08-16T20:50:50.787Z,6.60
2022-08-16T20:53:18.166Z,6.30
2022-08-16T20:55:45.656Z,6.80
2022-08-16T20:58:13.073Z,7.00
2022-08-16T21:00:41.178Z,6.35
2022-08-16T21:03:09.335Z,7.43
2022-08-16T21:05:36.836Z,6.55
2022-08-16T21:08:50.018Z,6.60
2022-08-16T21:10:53.798Z,6.35
2022-08-16T21:13:21.799Z,7.10
2022-08-16T21:15:49.270Z,6.70
2022-08-16T21:18:16.746Z,7.22
2022-08-16T21:20:44.261Z,7.00
2022-08-16T21:23:13.031Z,6.38
2022-08-16T21:25:57.695Z,7.15
2022-08-16T21:28:36.852Z,7.00
2022-08-16T21:33:37.431Z,7.35
2022-08-16T21:36:05.302Z,7.13
2022-08-16T21:38:34.039Z,7.20
2022-08-16T21:41:02.368Z,7.03
2022-08-16T21:43:32.216Z,7.60
2022-08-16T21:46:00.058Z,7.28
2022-08-16T21:48:35.092Z,7.80
2022-08-16T21:51:03.930Z,8.15
2022-08-16T21:53:31.383Z,6.97
2022-08-16T21:56:00.412Z,7.88
2022-08-16T21:58:28.055Z,6.63
2022-08-16T22:00:55.711Z,7.07
2022-08-16T22:03:23.881Z,7.07
2022-08-16T22:06:11.950Z,7.00
2022-08-16T22:08:39.455Z,7.00
2022-08-16T22:11:16.897Z,7.05
2022-08-16T22:13:52.799Z,6.32
2022-08-16T22:16:27.227Z,6.78
2022-08-16T22:18:54.729Z,7.43
2022-08-16T22:21:22.210Z,6.38
2022-08-16T22:23:55.182Z,7.38
2022-08-16T22:26:29.118Z,6.32
2022-08-16T22:28:58.919Z,6.88
2022-08-16T22:31:26.498Z,7.05
2022-08-16T22:33:53.951Z,7.53
2022-08-16T22:36:21.430Z,7.63
2022-08-16T22:38:55.872Z,7.68
2022-08-16T22:41:25.204Z,7.68
2022-08-16T22:43:54.010Z,7.43
2022-08-16T22:46:21.472Z,7.13
2022-08-16T22:48:50.697Z,8.50
2022-08-16T22:51:18.625Z,7.75
2022-08-16T22:53:46.109Z,7.53
2022-08-16T22:56:15.476Z,7.80
2022-08-16T22:58:43.030Z,7.97
2022-08-16T23:01:12.676Z,7.78
2022-08-16T23:03:41.047Z,6.95
2022-08-16T23:06:09.157Z,8.98
2022-08-16T23:08:40.602Z,8.10
2022-08-16T23:11:09.215Z,8.40
2022-08-16T23:13:36.750Z,8.38
2022-08-16T23:16:11.378Z,8.75
2022-08-16T23:18:41.614Z,8.25
2022-08-16T23:21:09.842Z,8.05
2022-08-16T23:23:38.132Z,8.68
2022-08-16T23:26:46.782Z,7.97
2022-08-16T23:28:53.369Z,8.73
2022-08-16T23:31:20.850Z,8.05
2022-08-16T23:33:49.649Z,8.15
2022-08-16T23:36:17.092Z,8.23
2022-08-16T23:38:44.576Z,8.23
2022-08-16T23:41:12.919Z,8.80
2022-08-16T23:43:41.833Z,8.32
2022-08-16T23:46:11.644Z,8.02
2022-08-16T23:49:56.960Z,9.18
2022-08-16T23:51:29.018Z,8.73
2022-08-16T23:53:56.506Z,9.32
2022-08-16T23:56:23.899Z,8.52
2022-08-16T23:58:54.454Z,9.32
